Alder Grove, Washington
Current Conditions -  °F | °C
As of 3:53 PM on Friday 24 Oct 2014 (Local Time) from KSHN Reporting Station
Few Clouds Few Clouds  
Wind Chill: 53°   Ceiling: Unl
Heat Index: 53°   Visibility: 10mi
Dew Point: 49°   Wind: 6mph
Humidity: 86%   Direction: 350°N
Pressure: 29.89"   Gusts: NA
Location:  47.555°N, 123.746°W
Report Text: KSHN 242253Z AUTO 35005KT 10SM FEW120 12/09 A2989 RMK AO2 SLP125 T01170094 TSNO
Loading
Personal Weather Stations






























Interactive Weather Map New forecast layout! Learn more

10-Day Weather Forecast

Advertisements
Track Severe Weather on mobile